Time;durP1;ratioP1;P1;durP2;ratioP2;P2;SDS_P1;SDS_P2;PMS_P1;PMS_P2;Temp;Humidity;BMP_temperature;BMP_pressure;BME280_temperature;BME280_humidity;BME280_pressure;Samples;Min_cycle;Max_cycle;Signal;HPM_P1;HPM_P2
2022/11/28 00:02:19;;;;;;;4.47;1.80;;;;;;;;;;5097372;28;20202;-64
2022/11/28 00:04:50;;;;;;;3.33;1.60;;;;;;;;;;5097865;28;20569;-64
2022/11/28 00:07:18;;;;;;;1.50;1.40;;;;;;;;;;5098201;28;20210;-64
2022/11/28 00:09:47;;;;;;;3.23;1.60;;;;;;;;;;5098009;28;20241;-64
2022/11/28 00:12:15;;;;;;;2.03;1.80;;;;;;;;;;5097095;28;20966;-64
2022/11/28 00:14:42;;;;;;;2.80;1.70;;;;;;;;;;5098108;28;20229;-64
2022/11/28 00:17:12;;;;;;;4.20;1.37;;;;;;;;;;5095175;28;20231;-64
2022/11/28 00:19:40;;;;;;;3.97;1.60;;;;;;;;;;5098065;28;20215;-64
2022/11/28 00:22:08;;;;;;;3.40;1.50;;;;;;;;;;5097625;28;20232;-64
2022/11/28 00:24:36;;;;;;;3.10;1.50;;;;;;;;;;5096823;28;20304;-64
2022/11/28 00:27:04;;;;;;;6.33;1.67;;;;;;;;;;5097941;28;20209;-63
2022/11/28 00:29:32;;;;;;;1.40;1.40;;;;;;;;;;5097703;28;20233;-64
2022/11/28 00:32:00;;;;;;;3.67;1.57;;;;;;;;;;5097685;28;20288;-63
2022/11/28 00:34:30;;;;;;;2.47;1.70;;;;;;;;;;5098005;28;20225;-64
2022/11/28 00:36:58;;;;;;;2.63;1.50;;;;;;;;;;5090815;28;20229;-64
2022/11/28 00:39:26;;;;;;;1.77;1.47;;;;;;;;;;5092825;28;20285;-64
2022/11/28 00:41:54;;;;;;;2.97;1.90;;;;;;;;;;5097228;28;20231;-64
2022/11/28 00:44:22;;;;;;;2.10;1.30;;;;;;;;;;5097464;28;20225;-64
2022/11/28 00:46:50;;;;;;;2.13;1.50;;;;;;;;;;5100388;28;20668;-64
2022/11/28 00:49:17;;;;;;;2.33;1.57;;;;;;;;;;5100569;28;20201;-64
2022/11/28 00:51:47;;;;;;;3.80;1.60;;;;;;;;;;5101102;28;20202;-64
2022/11/28 00:54:15;;;;;;;4.57;1.63;;;;;;;;;;5101643;28;20635;-64
2022/11/28 00:56:43;;;;;;;1.97;1.33;;;;;;;;;;5101559;28;20575;-64
2022/11/28 00:59:11;;;;;;;2.17;1.40;;;;;;;;;;5101545;28;20202;-64
2022/11/28 01:01:40;;;;;;;4.27;1.50;;;;;;;;;;5100812;28;20299;-64
2022/11/28 01:04:09;;;;;;;3.60;1.60;;;;;;;;;;5101718;28;20264;-64
2022/11/28 01:06:38;;;;;;;5.60;1.83;;;;;;;;;;5101036;28;20243;-64
2022/11/28 01:09:09;;;;;;;2.47;1.60;;;;;;;;;;5101679;28;20568;-64
2022/11/28 01:11:37;;;;;;;4.03;1.60;;;;;;;;;;5101715;28;20236;-64
2022/11/28 01:14:05;;;;;;;1.27;1.13;;;;;;;;;;5100298;28;20221;-64
2022/11/28 01:16:34;;;;;;;2.97;1.97;;;;;;;;;;5098759;28;20211;-64
2022/11/28 01:19:04;;;;;;;2.33;1.60;;;;;;;;;;5101383;28;20205;-64
2022/11/28 01:21:32;;;;;;;2.87;1.57;;;;;;;;;;5101120;28;20229;-64
2022/11/28 01:24:00;;;;;;;2.37;1.50;;;;;;;;;;5100979;28;20248;-64
2022/11/28 01:26:30;;;;;;;5.83;2.00;;;;;;;;;;5100652;28;20201;-64
2022/11/28 01:28:59;;;;;;;1.50;1.40;;;;;;;;;;5101215;28;20205;-64
2022/11/28 01:31:28;;;;;;;4.23;1.30;;;;;;;;;;5101297;28;20209;-64
2022/11/28 01:33:56;;;;;;;3.57;1.23;;;;;;;;;;5100824;28;20229;-64
2022/11/28 01:36:24;;;;;;;1.83;1.40;;;;;;;;;;5100652;28;20235;-64
2022/11/28 01:38:52;;;;;;;3.63;1.67;;;;;;;;;;5100063;28;20205;-64
2022/11/28 01:41:22;;;;;;;2.67;1.23;;;;;;;;;;5100835;28;20693;-64
2022/11/28 01:44:04;;;;;;;4.23;1.60;;;;;;;;;;5100660;28;20229;-64
2022/11/28 01:46:34;;;;;;;4.47;1.47;;;;;;;;;;5100979;28;20206;-64
2022/11/28 01:49:04;;;;;;;2.70;1.57;;;;;;;;;;5100903;28;20293;-64
2022/11/28 01:51:32;;;;;;;1.70;1.30;;;;;;;;;;5099754;28;20204;-64
2022/11/28 01:54:01;;;;;;;2.63;1.47;;;;;;;;;;5100797;28;20308;-64
2022/11/28 01:56:34;;;;;;;4.53;1.50;;;;;;;;;;5100465;28;20569;-64
2022/11/28 01:59:07;;;;;;;2.60;1.30;;;;;;;;;;5099683;28;20206;-64
2022/11/28 02:01:34;;;;;;;1.83;1.20;;;;;;;;;;5096130;28;20221;-64
2022/11/28 02:04:03;;;;;;;1.50;0.97;;;;;;;;;;5090695;28;20257;-64
2022/11/28 02:06:34;;;;;;;1.43;1.10;;;;;;;;;;5099531;28;20234;-64
2022/11/28 02:09:04;;;;;;;1.63;1.10;;;;;;;;;;5100558;28;20209;-64
2022/11/28 02:11:43;;;;;;;2.93;1.17;;;;;;;;;;5100464;28;20208;-64
2022/11/28 02:14:16;;;;;;;3.67;1.17;;;;;;;;;;5099511;28;20235;-64
2022/11/28 02:16:49;;;;;;;1.17;1.07;;;;;;;;;;5097411;28;20633;-64
2022/11/28 02:19:34;;;;;;;1.80;1.33;;;;;;;;;;5100280;28;20290;-64
2022/11/28 02:22:05;;;;;;;2.27;1.03;;;;;;;;;;5099606;28;20225;-64
2022/11/28 02:24:39;;;;;;;1.60;1.47;;;;;;;;;;5100102;28;20225;-64
2022/11/28 02:27:13;;;;;;;2.43;1.20;;;;;;;;;;5099320;28;20209;-64
2022/11/28 02:29:51;;;;;;;2.30;1.27;;;;;;;;;;5100193;28;20206;-64
2022/11/28 02:32:34;;;;;;;3.33;1.70;;;;;;;;;;5100025;28;20212;-64
2022/11/28 02:35:08;;;;;;;1.30;1.30;;;;;;;;;;5099994;28;20237;-64
2022/11/28 02:37:39;;;;;;;1.30;1.00;;;;;;;;;;5098981;28;20672;-64
2022/11/28 02:40:10;;;;;;;1.70;1.60;;;;;;;;;;5099639;28;20213;-64
2022/11/28 02:42:42;;;;;;;2.97;1.40;;;;;;;;;;5099685;28;20229;-64
2022/11/28 02:45:13;;;;;;;1.03;1.03;;;;;;;;;;5099771;28;20221;-64
2022/11/28 02:47:45;;;;;;;2.73;1.47;;;;;;;;;;5098987;28;20205;-64
2022/11/28 02:50:16;;;;;;;4.87;1.40;;;;;;;;;;5099439;28;20201;-64
2022/11/28 02:52:46;;;;;;;1.43;1.20;;;;;;;;;;5099694;28;20209;-64
2022/11/28 02:55:14;;;;;;;2.03;1.20;;;;;;;;;;5099552;28;20225;-64
2022/11/28 02:57:46;;;;;;;1.13;0.90;;;;;;;;;;5099249;28;20712;-64
2022/11/28 03:00:25;;;;;;;3.50;1.27;;;;;;;;;;5097667;28;20205;-64
2022/11/28 03:02:57;;;;;;;1.37;1.00;;;;;;;;;;5099091;28;20286;-64
2022/11/28 03:05:29;;;;;;;2.20;1.40;;;;;;;;;;5098663;28;20244;-64
2022/11/28 03:08:00;;;;;;;1.60;1.20;;;;;;;;;;5099375;28;20216;-64
2022/11/28 03:10:30;;;;;;;2.33;1.20;;;;;;;;;;5098335;28;20206;-64
2022/11/28 03:13:05;;;;;;;1.50;1.00;;;;;;;;;;5098859;28;20201;-64
2022/11/28 03:15:38;;;;;;;1.33;1.10;;;;;;;;;;5099020;28;20232;-64
2022/11/28 03:18:12;;;;;;;4.07;1.20;;;;;;;;;;5096304;28;20209;-64
2022/11/28 03:20:45;;;;;;;2.00;1.40;;;;;;;;;;5098579;28;20568;-64
2022/11/28 03:23:16;;;;;;;2.47;1.00;;;;;;;;;;5096770;28;20227;-64
2022/11/28 03:25:51;;;;;;;3.87;1.67;;;;;;;;;;5097600;28;20206;-64
2022/11/28 03:28:22;;;;;;;5.17;1.27;;;;;;;;;;5098701;28;20572;-64
2022/11/28 03:30:52;;;;;;;1.53;1.03;;;;;;;;;;5098875;28;20551;-64
2022/11/28 03:33:23;;;;;;;4.63;1.20;;;;;;;;;;5098837;28;20208;-64
2022/11/28 03:35:53;;;;;;;1.73;1.20;;;;;;;;;;5097945;28;20213;-64
2022/11/28 03:38:22;;;;;;;1.30;1.20;;;;;;;;;;5098947;28;20214;-64
2022/11/28 03:40:53;;;;;;;4.33;1.40;;;;;;;;;;5098798;28;20209;-64
2022/11/28 03:43:24;;;;;;;2.87;1.50;;;;;;;;;;5098256;28;20225;-64
2022/11/28 03:45:53;;;;;;;2.97;1.10;;;;;;;;;;5098769;28;20209;-64
2022/11/28 03:48:24;;;;;;;1.60;1.17;;;;;;;;;;5097454;28;20210;-64
2022/11/28 03:50:55;;;;;;;1.77;1.50;;;;;;;;;;5098348;28;20205;-64
2022/11/28 03:53:26;;;;;;;4.10;1.27;;;;;;;;;;5098200;28;20661;-64
2022/11/28 03:55:56;;;;;;;1.13;1.03;;;;;;;;;;5098578;28;20216;-64
2022/11/28 03:58:27;;;;;;;2.63;1.50;;;;;;;;;;5097821;28;20205;-64
2022/11/28 04:01:11;;;;;;;2.37;1.10;;;;;;;;;;5093402;28;20197;-64
2022/11/28 04:03:46;;;;;;;1.97;1.20;;;;;;;;;;5084883;28;20640;-64
2022/11/28 04:06:16;;;;;;;2.17;1.50;;;;;;;;;;5097676;28;20301;-64
2022/11/28 04:08:48;;;;;;;1.40;1.27;;;;;;;;;;5098498;28;20236;-64
2022/11/28 04:11:19;;;;;;;3.40;1.23;;;;;;;;;;5097109;28;20197;-64
2022/11/28 04:13:51;;;;;;;2.97;1.17;;;;;;;;;;5098122;28;20222;-64
2022/11/28 04:16:20;;;;;;;1.63;1.30;;;;;;;;;;5095473;28;20206;-64
2022/11/28 04:18:52;;;;;;;3.77;1.40;;;;;;;;;;5097935;28;20205;-64
2022/11/28 04:21:22;;;;;;;4.53;1.27;;;;;;;;;;5097065;28;20205;-64
2022/11/28 04:23:51;;;;;;;8.63;1.50;;;;;;;;;;5097076;28;20233;-64
2022/11/28 04:26:23;;;;;;;1.23;1.10;;;;;;;;;;5098095;28;20205;-64
2022/11/28 04:28:52;;;;;;;7.33;1.40;;;;;;;;;;5097629;28;20209;-64
2022/11/28 04:31:23;;;;;;;3.97;1.30;;;;;;;;;;5098097;28;20209;-64
2022/11/28 04:33:56;;;;;;;3.03;1.07;;;;;;;;;;5097707;28;20603;-64
2022/11/28 04:36:25;;;;;;;2.07;1.37;;;;;;;;;;5096809;28;20212;-64
2022/11/28 04:38:55;;;;;;;3.00;1.20;;;;;;;;;;5097364;28;20213;-64
2022/11/28 04:41:24;;;;;;;3.40;1.20;;;;;;;;;;5097738;28;20610;-64
2022/11/28 04:43:56;;;;;;;1.87;1.20;;;;;;;;;;5097699;28;20232;-64
2022/11/28 04:46:26;;;;;;;1.30;1.20;;;;;;;;;;5097940;28;20205;-64
2022/11/28 04:48:55;;;;;;;1.80;1.20;;;;;;;;;;5096010;28;20204;-64
2022/11/28 04:51:25;;;;;;;4.30;1.77;;;;;;;;;;5097474;28;20202;-64
2022/11/28 04:53:57;;;;;;;5.87;1.20;;;;;;;;;;5097503;28;20591;-64
2022/11/28 04:56:27;;;;;;;5.10;1.23;;;;;;;;;;5097817;28;20213;-64
2022/11/28 04:58:56;;;;;;;2.87;1.17;;;;;;;;;;5096517;28;20665;-64
2022/11/28 05:01:25;;;;;;;2.23;1.37;;;;;;;;;;5097536;28;20598;-64
2022/11/28 05:03:55;;;;;;;3.53;1.40;;;;;;;;;;5097382;28;20233;-64
2022/11/28 05:06:24;;;;;;;4.30;1.20;;;;;;;;;;5097117;28;20259;-64
2022/11/28 05:08:52;;;;;;;1.10;1.00;;;;;;;;;;5097480;28;20208;-64
2022/11/28 05:11:20;;;;;;;1.53;1.10;;;;;;;;;;5096909;28;20193;-64
2022/11/28 05:13:48;;;;;;;2.40;1.40;;;;;;;;;;5097216;28;20217;-64
2022/11/28 05:16:16;;;;;;;1.40;1.10;;;;;;;;;;5094986;28;20206;-64
2022/11/28 05:18:44;;;;;;;1.53;1.23;;;;;;;;;;5097516;28;20216;-64
2022/11/28 05:21:13;;;;;;;1.03;1.00;;;;;;;;;;5097290;28;20223;-64
2022/11/28 05:23:42;;;;;;;1.63;1.00;;;;;;;;;;5096514;28;20225;-64
2022/11/28 05:26:11;;;;;;;3.17;0.90;;;;;;;;;;5097449;28;20205;-64
2022/11/28 05:28:39;;;;;;;1.00;1.00;;;;;;;;;;5097434;28;20220;-64
2022/11/28 05:31:07;;;;;;;2.80;1.10;;;;;;;;;;5097318;28;20210;-64
2022/11/28 05:33:35;;;;;;;2.30;1.00;;;;;;;;;;5100784;28;20217;-64
2022/11/28 05:36:04;;;;;;;1.40;1.10;;;;;;;;;;5099821;28;20202;-64
2022/11/28 05:38:40;;;;;;;1.97;1.13;;;;;;;;;;5100980;28;20285;-64
2022/11/28 05:41:09;;;;;;;2.63;0.90;;;;;;;;;;5100861;28;20209;-64
2022/11/28 05:43:37;;;;;;;4.17;1.17;;;;;;;;;;5100733;28;20233;-64
2022/11/28 05:46:05;;;;;;;1.40;0.90;;;;;;;;;;5100784;28;20205;-64
2022/11/28 05:48:34;;;;;;;2.33;0.80;;;;;;;;;;5099776;28;20281;-64
2022/11/28 05:51:04;;;;;;;1.67;1.20;;;;;;;;;;5100326;28;20209;-64
2022/11/28 05:53:32;;;;;;;1.33;0.87;;;;;;;;;;5118741;28;20606;-64
2022/11/28 05:56:05;;;;;;;1.00;1.00;;;;;;;;;;5121415;28;20292;-64
2022/11/28 05:58:33;;;;;;;1.20;1.00;;;;;;;;;;5115245;27;20208;-64
2022/11/28 06:01:08;;;;;;;2.43;0.90;;;;;;;;;;5099968;28;20294;-64
2022/11/28 06:03:36;;;;;;;1.40;1.30;;;;;;;;;;5095416;28;20220;-64
2022/11/28 06:06:04;;;;;;;4.20;1.10;;;;;;;;;;5098227;28;20231;-64
2022/11/28 06:08:34;;;;;;;5.73;1.37;;;;;;;;;;5100244;28;20206;-63
2022/11/28 06:11:06;;;;;;;1.13;0.90;;;;;;;;;;5097855;28;20673;-64
2022/11/28 06:13:34;;;;;;;1.60;1.10;;;;;;;;;;5100172;28;20225;-64
2022/11/28 06:16:04;;;;;;;1.00;0.70;;;;;;;;;;5098778;28;20581;-64
2022/11/28 06:18:32;;;;;;;0.97;0.97;;;;;;;;;;5099471;28;20209;-64
2022/11/28 06:21:01;;;;;;;3.13;1.30;;;;;;;;;;5095375;28;20206;-64
2022/11/28 06:23:29;;;;;;;2.87;1.50;;;;;;;;;;5091021;28;20225;-64
2022/11/28 06:25:57;;;;;;;3.23;1.20;;;;;;;;;;5100125;28;20210;-64
2022/11/28 06:28:26;;;;;;;3.57;1.33;;;;;;;;;;5100142;28;20292;-64
2022/11/28 06:30:54;;;;;;;3.13;1.20;;;;;;;;;;5100071;28;20210;-64
2022/11/28 06:33:22;;;;;;;3.50;1.20;;;;;;;;;;5099173;28;20202;-64
2022/11/28 06:35:50;;;;;;;1.47;1.37;;;;;;;;;;5099331;28;20692;-64
2022/11/28 06:38:18;;;;;;;1.33;1.23;;;;;;;;;;5100068;28;20214;-64
2022/11/28 06:40:46;;;;;;;3.53;1.60;;;;;;;;;;5100019;28;20212;-64
2022/11/28 06:43:14;;;;;;;3.27;1.70;;;;;;;;;;5099274;28;20209;-64
2022/11/28 06:45:43;;;;;;;5.27;1.80;;;;;;;;;;5093707;28;20229;-64
2022/11/28 06:48:11;;;;;;;2.47;1.93;;;;;;;;;;5091920;28;20240;-64
2022/11/28 06:50:39;;;;;;;1.77;1.60;;;;;;;;;;5099551;28;20206;-64
2022/11/28 06:53:07;;;;;;;3.10;1.47;;;;;;;;;;5099462;28;20209;-64
2022/11/28 06:55:35;;;;;;;6.50;2.40;;;;;;;;;;5099713;28;20212;-64
2022/11/28 06:58:03;;;;;;;2.30;1.67;;;;;;;;;;5099126;28;20205;-64
2022/11/28 07:00:31;;;;;;;1.60;1.50;;;;;;;;;;5088127;28;20208;-64
2022/11/28 07:03:03;;;;;;;1.97;1.70;;;;;;;;;;5098065;28;20208;-64
2022/11/28 07:05:31;;;;;;;3.20;2.00;;;;;;;;;;5098587;28;20237;-64
2022/11/28 07:08:01;;;;;;;3.80;1.60;;;;;;;;;;5099141;28;20206;-64
2022/11/28 07:10:33;;;;;;;2.00;1.67;;;;;;;;;;5099445;28;20291;-64
2022/11/28 07:13:01;;;;;;;2.40;1.93;;;;;;;;;;5098249;28;20208;-64
2022/11/28 07:15:32;;;;;;;2.73;2.23;;;;;;;;;;5098947;28;20202;-64
2022/11/28 07:18:00;;;;;;;6.03;1.80;;;;;;;;;;5096150;28;20212;-64
2022/11/28 07:20:31;;;;;;;2.10;1.80;;;;;;;;;;5098828;28;20210;-64
2022/11/28 07:23:00;;;;;;;2.63;2.03;;;;;;;;;;5098202;28;20212;-65
2022/11/28 07:25:28;;;;;;;5.50;2.83;;;;;;;;;;5092079;28;20229;-64
2022/11/28 07:27:56;;;;;;;2.50;2.30;;;;;;;;;;5098816;28;20618;-64
2022/11/28 07:30:24;;;;;;;3.83;2.40;;;;;;;;;;5099132;28;20206;-64
2022/11/28 07:32:52;;;;;;;2.63;2.07;;;;;;;;;;5098832;28;20209;-64
2022/11/28 07:35:20;;;;;;;3.67;2.30;;;;;;;;;;5097896;28;20610;-64
2022/11/28 07:37:49;;;;;;;3.50;2.30;;;;;;;;;;5098003;28;20201;-64
2022/11/28 07:40:19;;;;;;;3.47;2.50;;;;;;;;;;5098776;28;20210;-64
2022/11/28 07:42:47;;;;;;;2.80;2.40;;;;;;;;;;5094264;28;20212;-64
2022/11/28 07:45:16;;;;;;;4.67;2.27;;;;;;;;;;5085554;28;20328;-64
2022/11/28 07:47:43;;;;;;;3.23;2.20;;;;;;;;;;5088825;28;20584;-64
2022/11/28 07:50:11;;;;;;;2.40;2.20;;;;;;;;;;5098572;28;20217;-64
2022/11/28 07:52:39;;;;;;;4.07;2.33;;;;;;;;;;5098877;28;20217;-64
2022/11/28 07:55:09;;;;;;;3.17;2.10;;;;;;;;;;5089211;28;20240;-64
2022/11/28 07:57:37;;;;;;;3.50;2.57;;;;;;;;;;5089586;28;20205;-64
2022/11/28 08:00:05;;;;;;;5.93;2.40;;;;;;;;;;5098141;28;20197;-64
2022/11/28 08:02:36;;;;;;;3.53;3.23;;;;;;;;;;5097491;28;20216;-64
2022/11/28 08:05:05;;;;;;;4.00;2.27;;;;;;;;;;5098495;28;20237;-64
2022/11/28 08:07:35;;;;;;;4.00;2.33;;;;;;;;;;5098422;28;20648;-64
2022/11/28 08:10:04;;;;;;;2.97;2.10;;;;;;;;;;5098405;28;20251;-64
2022/11/28 08:12:33;;;;;;;3.47;2.60;;;;;;;;;;5092998;28;20208;-64
2022/11/28 08:15:01;;;;;;;7.10;2.50;;;;;;;;;;5098300;28;20226;-64
2022/11/28 08:17:29;;;;;;;2.50;2.20;;;;;;;;;;5095319;28;20245;-64
2022/11/28 08:19:57;;;;;;;4.47;2.43;;;;;;;;;;5097812;28;20219;-64
2022/11/28 08:22:25;;;;;;;2.50;2.20;;;;;;;;;;5096889;28;20201;-64
2022/11/28 08:24:53;;;;;;;4.03;2.40;;;;;;;;;;5097904;28;20233;-64
2022/11/28 08:27:21;;;;;;;2.40;2.20;;;;;;;;;;5097868;28;20228;-64
2022/11/28 08:29:51;;;;;;;5.03;2.70;;;;;;;;;;5098005;28;20205;-64
2022/11/28 08:32:20;;;;;;;7.03;2.90;;;;;;;;;;5097123;28;20217;-64
2022/11/28 08:34:48;;;;;;;4.30;2.10;;;;;;;;;;5097753;28;20236;-64
2022/11/28 08:37:16;;;;;;;4.83;2.47;;;;;;;;;;5097475;28;20214;-64
2022/11/28 08:39:44;;;;;;;3.87;2.83;;;;;;;;;;5096859;28;20212;-64
2022/11/28 08:42:12;;;;;;;6.80;2.27;;;;;;;;;;5096139;28;20216;-64
2022/11/28 08:44:40;;;;;;;4.70;2.53;;;;;;;;;;5097317;28;20588;-64
2022/11/28 08:47:09;;;;;;;4.70;2.67;;;;;;;;;;5097716;28;20232;-64
2022/11/28 08:49:38;;;;;;;3.80;2.33;;;;;;;;;;5097856;28;20205;-64
2022/11/28 08:52:06;;;;;;;6.80;2.63;;;;;;;;;;5092287;28;20201;-64
2022/11/28 08:54:34;;;;;;;3.43;2.43;;;;;;;;;;5097277;28;20591;-64
2022/11/28 08:57:02;;;;;;;3.87;2.43;;;;;;;;;;5097761;28;20216;-64
2022/11/28 08:59:33;;;;;;;4.20;2.50;;;;;;;;;;5097505;28;20240;-64
2022/11/28 09:02:01;;;;;;;4.33;2.87;;;;;;;;;;5095079;28;20580;-64
2022/11/28 09:04:30;;;;;;;2.50;2.27;;;;;;;;;;5093550;28;20220;-64
2022/11/28 09:06:58;;;;;;;2.73;2.53;;;;;;;;;;5098408;28;20201;-60
2022/11/28 09:09:28;;;;;;;7.80;2.67;;;;;;;;;;5103603;28;20661;-60
2022/11/28 09:11:59;;;;;;;5.63;3.10;;;;;;;;;;5122087;28;20211;-61
2022/11/28 09:14:27;;;;;;;5.80;2.80;;;;;;;;;;5112579;28;20226;-60
2022/11/28 09:16:55;;;;;;;4.80;3.00;;;;;;;;;;5098648;28;20208;-61
2022/11/28 09:19:23;;;;;;;6.77;3.37;;;;;;;;;;5101150;28;20628;-61
2022/11/28 09:21:53;;;;;;;5.20;3.17;;;;;;;;;;5100263;28;20205;-62
2022/11/28 09:24:24;;;;;;;5.13;3.10;;;;;;;;;;5102598;28;20221;-64
2022/11/28 09:26:52;;;;;;;4.00;2.67;;;;;;;;;;5087222;28;20225;-63
2022/11/28 09:29:20;;;;;;;5.87;3.07;;;;;;;;;;5100170;28;20214;-63
2022/11/28 09:31:48;;;;;;;4.87;3.37;;;;;;;;;;5097611;28;20202;-63
2022/11/28 09:34:16;;;;;;;8.23;3.40;;;;;;;;;;5100630;28;20218;-63
2022/11/28 09:36:44;;;;;;;5.00;2.87;;;;;;;;;;5099764;28;20202;-64
2022/11/28 09:39:13;;;;;;;5.20;3.13;;;;;;;;;;5086869;28;20200;-64
2022/11/28 09:41:44;;;;;;;5.77;3.77;;;;;;;;;;5100635;28;20208;-63
2022/11/28 09:44:16;;;;;;;3.77;2.87;;;;;;;;;;5100516;28;20226;-63
2022/11/28 09:46:46;;;;;;;3.13;2.80;;;;;;;;;;5100390;28;20229;-63
2022/11/28 09:49:22;;;;;;;3.67;3.33;;;;;;;;;;5100391;28;20570;-64
2022/11/28 09:51:52;;;;;;;4.03;2.83;;;;;;;;;;5099179;28;20197;-63
2022/11/28 09:54:25;;;;;;;5.63;3.47;;;;;;;;;;5100726;28;20225;-64
2022/11/28 09:56:53;;;;;;;4.80;3.47;;;;;;;;;;5100385;28;20289;-63
2022/11/28 09:59:24;;;;;;;6.50;3.27;;;;;;;;;;5100424;28;20236;-63
2022/11/28 10:01:55;;;;;;;4.70;2.97;;;;;;;;;;5100350;28;20676;-64
2022/11/28 10:04:27;;;;;;;5.27;3.73;;;;;;;;;;5099883;28;20309;-64
2022/11/28 10:06:59;;;;;;;7.97;3.40;;;;;;;;;;5099925;28;20228;-64
2022/11/28 10:09:33;;;;;;;11.17;3.57;;;;;;;;;;5100251;28;20206;-64
2022/11/28 10:12:06;;;;;;;5.93;2.93;;;;;;;;;;5100165;28;20204;-64
2022/11/28 10:14:47;;;;;;;5.50;3.40;;;;;;;;;;5099057;28;20213;-64
2022/11/28 10:17:19;;;;;;;4.07;3.43;;;;;;;;;;5097665;28;20198;-63
2022/11/28 10:19:50;;;;;;;5.77;3.20;;;;;;;;;;5086749;28;20214;-63
2022/11/28 10:22:26;;;;;;;4.20;3.53;;;;;;;;;;5100596;28;20289;-63
2022/11/28 10:24:56;;;;;;;3.93;3.00;;;;;;;;;;5100468;28;20239;-63
2022/11/28 10:27:25;;;;;;;4.17;3.13;;;;;;;;;;5091072;28;20233;-63
2022/11/28 10:29:58;;;;;;;7.00;2.90;;;;;;;;;;5097553;28;20198;-63
2022/11/28 10:32:31;;;;;;;7.93;2.77;;;;;;;;;;5104796;28;20201;-64
2022/11/28 10:35:00;;;;;;;5.90;3.00;;;;;;;;;;5105136;28;20249;-64
2022/11/28 10:37:29;;;;;;;3.90;3.40;;;;;;;;;;5108700;28;20257;-64
2022/11/28 10:40:14;;;;;;;2.57;2.37;;;;;;;;;;5108821;28;20254;-64
2022/11/28 10:42:46;;;;;;;6.63;3.13;;;;;;;;;;5106103;28;20259;-64
2022/11/28 10:45:18;;;;;;;5.13;2.70;;;;;;;;;;5107767;28;20236;-64
2022/11/28 10:47:55;;;;;;;3.60;3.03;;;;;;;;;;5109005;28;20208;-64
2022/11/28 10:50:27;;;;;;;5.60;3.00;;;;;;;;;;5107373;28;20197;-64
2022/11/28 10:53:00;;;;;;;6.33;2.93;;;;;;;;;;5097953;28;20205;-63
2022/11/28 10:55:35;;;;;;;3.37;2.63;;;;;;;;;;5099323;28;20590;-63
2022/11/28 10:58:09;;;;;;;7.53;3.30;;;;;;;;;;5099143;28;20212;-63
2022/11/28 11:00:38;;;;;;;3.63;2.70;;;;;;;;;;5099323;28;20568;-64
2022/11/28 11:03:11;;;;;;;5.00;2.60;;;;;;;;;;5093700;28;20202;-64
2022/11/28 11:05:39;;;;;;;5.17;3.50;;;;;;;;;;5098154;28;20236;-63
2022/11/28 11:08:12;;;;;;;6.17;3.53;;;;;;;;;;5097330;28;20210;-65
2022/11/28 11:10:45;;;;;;;2.87;2.60;;;;;;;;;;5098966;28;20270;-64
2022/11/28 11:13:14;;;;;;;3.10;2.77;;;;;;;;;;5099333;28;20576;-64
2022/11/28 11:15:42;;;;;;;5.40;3.07;;;;;;;;;;5097246;28;20216;-64
2022/11/28 11:18:21;;;;;;;7.93;3.50;;;;;;;;;;5095134;28;20215;-64
2022/11/28 11:20:49;;;;;;;6.23;2.80;;;;;;;;;;5098608;28;20205;-64
2022/11/28 11:23:18;;;;;;;5.77;2.97;;;;;;;;;;5098490;28;20205;-64
2022/11/28 11:25:50;;;;;;;3.57;3.10;;;;;;;;;;5098395;28;20205;-65
2022/11/28 11:28:39;;;;;;;7.70;3.60;;;;;;;;;;5097534;28;20197;-66
2022/11/28 11:31:15;;;;;;;4.97;3.13;;;;;;;;;;5088919;28;20194;-65
2022/11/28 11:33:43;;;;;;;5.13;3.13;;;;;;;;;;5098512;28;20274;-64
2022/11/28 11:36:22;;;;;;;5.00;3.17;;;;;;;;;;5098506;28;20213;-63
2022/11/28 11:38:50;;;;;;;5.53;3.67;;;;;;;;;;5095237;28;20204;-64
2022/11/28 11:41:26;;;;;;;8.97;4.97;;;;;;;;;;5088220;28;20569;-64
2022/11/28 11:43:54;;;;;;;8.93;4.80;;;;;;;;;;5098136;28;20221;-64
2022/11/28 11:46:22;;;;;;;6.00;4.07;;;;;;;;;;5098381;28;20225;-65
2022/11/28 11:48:51;;;;;;;7.10;3.43;;;;;;;;;;5097620;28;20206;-65
2022/11/28 11:51:24;;;;;;;10.33;5.07;;;;;;;;;;5098369;28;20209;-64
2022/11/28 11:54:02;;;;;;;5.83;4.30;;;;;;;;;;5098440;28;20236;-64
2022/11/28 11:56:32;;;;;;;6.23;3.57;;;;;;;;;;5098464;28;20205;-66
2022/11/28 11:59:05;;;;;;;11.50;4.47;;;;;;;;;;5098488;28;20672;-66
2022/11/28 12:01:33;;;;;;;6.93;4.17;;;;;;;;;;5097045;28;20198;-66
2022/11/28 12:04:05;;;;;;;6.03;3.97;;;;;;;;;;5096219;28;20217;-66
2022/11/28 12:06:54;;;;;;;4.43;4.03;;;;;;;;;;5093771;28;20810;-66
2022/11/28 12:09:38;;;;;;;7.53;4.90;;;;;;;;;;5092253;28;20214;-67
2022/11/28 12:12:12;;;;;;;8.50;4.20;;;;;;;;;;5097824;28;20209;-66
2022/11/28 12:14:40;;;;;;;5.13;4.07;;;;;;;;;;5098041;28;20256;-67
2022/11/28 12:17:14;;;;;;;6.03;4.67;;;;;;;;;;5088024;28;20201;-66
2022/11/28 12:20:21;;;;;;;12.37;7.60;;;;;;;;;;5096033;28;20207;-66
2022/11/28 12:22:53;;;;;;;6.67;4.47;;;;;;;;;;5100063;28;20232;-66
2022/11/28 12:25:25;;;;;;;6.93;4.63;;;;;;;;;;5097516;28;20287;-66
2022/11/28 12:27:59;;;;;;;6.73;4.37;;;;;;;;;;5097856;28;20229;-66
2022/11/28 12:30:34;;;;;;;6.90;5.40;;;;;;;;;;5094725;28;20721;-66
2022/11/28 12:33:15;;;;;;;7.67;4.70;;;;;;;;;;5098185;28;20213;-66
2022/11/28 12:35:43;;;;;;;8.00;3.90;;;;;;;;;;5097811;28;20201;-66
2022/11/28 12:38:24;;;;;;;5.40;4.27;;;;;;;;;;5097852;28;20228;-67
2022/11/28 12:41:07;;;;;;;8.63;5.07;;;;;;;;;;5084261;28;20217;-67
2022/11/28 12:43:42;;;;;;;9.23;5.33;;;;;;;;;;5101895;28;20672;-66
2022/11/28 12:46:14;;;;;;;11.47;5.00;;;;;;;;;;5102326;28;20235;-66
2022/11/28 12:48:48;;;;;;;9.90;5.20;;;;;;;;;;5101699;28;20663;-66
2022/11/28 12:51:25;;;;;;;6.33;4.70;;;;;;;;;;5098001;28;20225;-65
2022/11/28 12:54:03;;;;;;;6.40;4.43;;;;;;;;;;5102015;28;20260;-66
2022/11/28 12:56:42;;;;;;;8.27;4.50;;;;;;;;;;5101835;28;20672;-66
2022/11/28 12:59:17;;;;;;;9.47;5.00;;;;;;;;;;5101206;28;20229;-67
2022/11/28 13:01:52;;;;;;;9.33;6.57;;;;;;;;;;5101789;28;20258;-66
2022/11/28 13:04:28;;;;;;;9.83;4.90;;;;;;;;;;5101804;28;20235;-66
2022/11/28 13:06:58;;;;;;;6.80;5.63;;;;;;;;;;5101310;28;20673;-66
2022/11/28 13:09:29;;;;;;;6.77;5.27;;;;;;;;;;5101777;28;20206;-66
2022/11/28 13:12:01;;;;;;;8.73;5.50;;;;;;;;;;5099947;28;20296;-66
2022/11/28 13:14:36;;;;;;;9.47;5.17;;;;;;;;;;5099690;28;21142;-66
2022/11/28 13:17:12;;;;;;;7.73;5.00;;;;;;;;;;5098831;28;20197;-66
2022/11/28 13:19:45;;;;;;;6.30;4.97;;;;;;;;;;5087739;28;20230;-66
2022/11/28 13:22:14;;;;;;;12.97;4.90;;;;;;;;;;5100950;28;20237;-66
2022/11/28 13:24:44;;;;;;;5.17;4.23;;;;;;;;;;5100246;28;20226;-66
2022/11/28 13:27:20;;;;;;;5.90;4.60;;;;;;;;;;5101222;28;20229;-66
2022/11/28 13:29:53;;;;;;;6.23;4.83;;;;;;;;;;5101681;28;20210;-67
2022/11/28 13:32:23;;;;;;;5.53;4.17;;;;;;;;;;5101536;28;20676;-67
2022/11/28 13:34:51;;;;;;;6.13;4.23;;;;;;;;;;5100725;28;20225;-67
2022/11/28 13:37:21;;;;;;;6.30;4.50;;;;;;;;;;5101198;28;20209;-67
2022/11/28 13:40:15;;;;;;;6.63;4.17;;;;;;;;;;5100705;28;20205;-67
2022/11/28 13:42:48;;;;;;;4.77;3.87;;;;;;;;;;5101087;28;20205;-67
2022/11/28 13:45:37;;;;;;;4.97;3.33;;;;;;;;;;5087432;28;20676;-67
2022/11/28 13:48:20;;;;;;;5.73;3.27;;;;;;;;;;5100020;28;20304;-66
2022/11/28 13:51:16;;;;;;;5.20;3.10;;;;;;;;;;5100465;28;20201;-67
2022/11/28 13:54:09;;;;;;;3.03;2.73;;;;;;;;;;5099408;28;20289;-67
2022/11/28 13:56:38;;;;;;;3.77;3.00;;;;;;;;;;5100135;28;20205;-67
2022/11/28 13:59:16;;;;;;;6.27;3.30;;;;;;;;;;5099807;28;20198;-67
2022/11/28 14:01:46;;;;;;;3.80;2.90;;;;;;;;;;5100609;28;20240;-66
2022/11/28 14:04:14;;;;;;;3.33;3.03;;;;;;;;;;5100844;28;20312;-66
2022/11/28 14:06:44;;;;;;;3.07;2.60;;;;;;;;;;5099968;28;20241;-66
2022/11/28 14:09:24;;;;;;;2.83;2.60;;;;;;;;;;5100514;28;20253;-66
2022/11/28 14:11:57;;;;;;;3.47;3.13;;;;;;;;;;5099495;28;20610;-66
2022/11/28 14:14:41;;;;;;;4.27;2.97;;;;;;;;;;5084993;28;20308;-66
2022/11/28 14:17:26;;;;;;;3.63;3.33;;;;;;;;;;5097663;28;20212;-66
2022/11/28 14:20:00;;;;;;;3.03;2.70;;;;;;;;;;5087803;28;20267;-66
2022/11/28 14:22:34;;;;;;;3.43;3.13;;;;;;;;;;5099541;28;20663;-66
2022/11/28 14:25:04;;;;;;;4.13;2.90;;;;;;;;;;5100173;28;20221;-66
2022/11/28 14:27:35;;;;;;;4.17;3.53;;;;;;;;;;5099845;28;20260;-66
2022/11/28 14:30:03;;;;;;;4.13;3.00;;;;;;;;;;5095100;28;20615;-66
2022/11/28 14:32:34;;;;;;;4.60;3.40;;;;;;;;;;5098314;28;20206;-66
2022/11/28 14:35:02;;;;;;;4.50;3.47;;;;;;;;;;5098681;28;20274;-66
2022/11/28 14:37:56;;;;;;;5.33;3.63;;;;;;;;;;5097752;28;20209;-66
2022/11/28 14:40:42;;;;;;;6.20;3.30;;;;;;;;;;5096682;28;20205;-66
2022/11/28 14:43:25;;;;;;;7.33;3.60;;;;;;;;;;5099747;28;20542;-66
2022/11/28 14:46:18;;;;;;;4.77;3.20;;;;;;;;;;5099812;28;20660;-66
2022/11/28 14:49:01;;;;;;;3.30;3.00;;;;;;;;;;5098527;28;20218;-66
2022/11/28 14:51:44;;;;;;;5.07;3.43;;;;;;;;;;5098919;28;20212;-66
2022/11/28 14:54:20;;;;;;;6.70;2.97;;;;;;;;;;5099167;28;20268;-66
2022/11/28 14:56:49;;;;;;;3.30;3.00;;;;;;;;;;5099464;28;20208;-66
2022/11/28 14:59:26;;;;;;;5.10;2.97;;;;;;;;;;5098428;28;20236;-66
2022/11/28 15:01:55;;;;;;;6.60;3.37;;;;;;;;;;5095019;28;20688;-66
2022/11/28 15:04:46;;;;;;;4.83;3.30;;;;;;;;;;5092628;28;20226;-65
2022/11/28 15:07:22;;;;;;;5.47;3.90;;;;;;;;;;5099489;28;20213;-65
2022/11/28 15:09:52;;;;;;;9.20;4.20;;;;;;;;;;5098952;28;20316;-65